createdAt,value
2022-08-26T00:00:21.418Z,2.20
2022-08-26T00:02:49.697Z,2.10
2022-08-26T00:05:18.281Z,2.35
2022-08-26T00:07:47.447Z,1.80
2022-08-26T00:10:15.989Z,2.15
2022-08-26T00:12:44.398Z,2.30
2022-08-26T00:15:16.837Z,2.15
2022-08-26T00:17:47.560Z,2.30
2022-08-26T00:20:20.423Z,2.50
2022-08-26T00:25:18.005Z,1.80
2022-08-26T00:27:47.332Z,2.45
2022-08-26T00:30:24.150Z,2.35
2022-08-26T00:32:57.302Z,2.35
2022-08-26T00:35:28.077Z,2.35
2022-08-26T00:37:57.429Z,2.10
2022-08-26T00:40:33.640Z,2.05
2022-08-26T00:43:02.677Z,2.65
2022-08-26T00:45:44.444Z,2.08
2022-08-26T00:48:17.329Z,1.80
2022-08-26T00:50:54.072Z,2.40
2022-08-26T00:53:27.809Z,2.83
2022-08-26T00:56:02.740Z,2.10
2022-08-26T00:58:35.101Z,2.08
2022-08-26T01:03:35.785Z,2.58
2022-08-26T01:08:41.615Z,2.00
2022-08-26T01:11:10.797Z,2.22
2022-08-26T01:13:40.555Z,2.17
2022-08-26T01:16:15.949Z,2.05
2022-08-26T01:18:46.847Z,2.33
2022-08-26T01:21:27.251Z,2.83
2022-08-26T01:23:58.933Z,2.20
2022-08-26T01:26:32.859Z,2.88
2022-08-26T01:29:03.933Z,2.28
2022-08-26T01:31:41.724Z,2.15
2022-08-26T01:34:17.386Z,2.42
2022-08-26T01:36:50.725Z,2.08
2022-08-26T01:39:21.449Z,2.47
2022-08-26T01:41:54.392Z,2.33
2022-08-26T01:44:27.938Z,2.22
2022-08-26T01:46:58.381Z,2.70
2022-08-26T01:49:27.731Z,1.92
2022-08-26T01:51:58.217Z,2.22
2022-08-26T01:54:27.982Z,2.20
2022-08-26T01:56:56.403Z,2.53
2022-08-26T01:59:26.426Z,2.65
2022-08-26T02:01:55.059Z,2.25
2022-08-26T02:04:28.635Z,2.15
2022-08-26T02:06:58.252Z,1.80
2022-08-26T02:09:29.231Z,2.00
2022-08-26T02:12:01.835Z,1.92
2022-08-26T02:14:34.976Z,2.03
2022-08-26T02:17:13.037Z,2.20
2022-08-26T02:19:47.059Z,2.30
2022-08-26T02:22:21.717Z,3.17
2022-08-26T02:24:54.411Z,2.20
2022-08-26T02:27:26.457Z,1.90
2022-08-26T02:30:01.373Z,2.33
2022-08-26T02:32:29.797Z,1.98
2022-08-26T02:34:58.207Z,2.63
2022-08-26T02:37:31.129Z,2.50
2022-08-26T02:40:01.086Z,2.45
2022-08-26T02:42:29.989Z,2.78
2022-08-26T02:44:58.273Z,2.13
2022-08-26T02:47:26.588Z,2.50
2022-08-26T02:49:57.587Z,2.10
2022-08-26T02:52:26.456Z,2.05
2022-08-26T02:54:56.533Z,2.05
2022-08-26T02:57:26.180Z,2.63
2022-08-26T02:59:54.631Z,2.15
2022-08-26T03:02:23.142Z,2.10
2022-08-26T03:04:57.787Z,2.30
2022-08-26T03:07:29.114Z,2.20
2022-08-26T03:09:58.218Z,2.35
2022-08-26T03:12:27.991Z,2.70
2022-08-26T03:14:56.327Z,2.13
2022-08-26T03:17:24.602Z,2.45
2022-08-26T03:19:57.367Z,2.28
2022-08-26T03:22:27.009Z,2.28
2022-08-26T03:24:55.922Z,2.50
2022-08-26T03:27:24.188Z,2.50
2022-08-26T03:30:11.793Z,2.28
2022-08-26T03:32:41.419Z,2.08
2022-08-26T03:35:10.765Z,2.25
2022-08-26T03:37:40.286Z,2.30
2022-08-26T03:40:11.781Z,1.75
2022-08-26T03:42:41.861Z,2.40
2022-08-26T03:45:17.492Z,2.30
2022-08-26T03:47:47.201Z,2.30
2022-08-26T03:50:22.879Z,2.20
2022-08-26T03:52:52.931Z,2.45
2022-08-26T03:55:23.889Z,2.75
2022-08-26T03:57:52.596Z,2.35
2022-08-26T04:00:22.691Z,2.33
2022-08-26T04:02:53.292Z,2.30
2022-08-26T04:05:23.000Z,2.30
2022-08-26T04:07:51.919Z,2.42
2022-08-26T04:10:29.303Z,2.50
2022-08-26T04:12:59.317Z,2.35
2022-08-26T04:15:29.446Z,2.75
2022-08-26T04:17:58.302Z,2.20
2022-08-26T04:20:27.203Z,2.28
2022-08-26T04:22:56.446Z,2.30
2022-08-26T04:25:25.416Z,2.70
2022-08-26T04:27:54.941Z,2.47
2022-08-26T04:30:23.554Z,2.78
2022-08-26T04:32:55.072Z,3.10
2022-08-26T04:35:25.971Z,2.70
2022-08-26T04:37:55.604Z,2.30
2022-08-26T04:40:24.542Z,2.28
2022-08-26T04:42:54.282Z,2.30
2022-08-26T04:45:23.022Z,2.75
2022-08-26T04:47:56.704Z,2.53
2022-08-26T04:50:27.019Z,2.47
2022-08-26T04:52:56.380Z,2.28
2022-08-26T04:55:38.680Z,3.20
2022-08-26T04:58:12.134Z,2.13
2022-08-26T05:00:40.383Z,2.70
2022-08-26T05:03:10.716Z,2.20
2022-08-26T05:05:41.243Z,2.53
2022-08-26T05:08:11.319Z,2.58
2022-08-26T05:10:45.152Z,2.65
2022-08-26T05:13:15.713Z,3.03
2022-08-26T05:15:45.885Z,3.08
2022-08-26T05:18:21.203Z,3.15
2022-08-26T05:20:54.754Z,3.33
2022-08-26T05:23:24.534Z,2.70
2022-08-26T05:25:59.278Z,2.55
2022-08-26T05:28:30.773Z,3.00
2022-08-26T05:30:59.117Z,3.33
2022-08-26T05:33:29.469Z,3.30
2022-08-26T05:35:57.713Z,2.78
2022-08-26T05:38:26.020Z,2.72
2022-08-26T05:40:58.653Z,2.92
2022-08-26T05:43:27.804Z,3.28
2022-08-26T05:45:56.254Z,4.28
2022-08-26T05:48:25.077Z,3.80
2022-08-26T05:50:55.019Z,3.47
2022-08-26T05:53:26.242Z,3.80
2022-08-26T05:55:58.131Z,3.97
2022-08-26T05:58:27.615Z,4.25
2022-08-26T06:01:03.416Z,4.07
2022-08-26T06:03:34.395Z,3.25
2022-08-26T06:06:06.702Z,16.30
2022-08-26T06:08:35.716Z,6.10
2022-08-26T06:11:07.479Z,6.00
2022-08-26T06:13:41.802Z,9.77
2022-08-26T06:16:13.176Z,6.43
2022-08-26T06:18:44.921Z,3.70
2022-08-26T06:21:18.898Z,3.58
2022-08-26T06:24:07.590Z,4.07
2022-08-26T06:26:38.055Z,3.55
2022-08-26T06:31:36.070Z,3.80
2022-08-26T06:34:10.384Z,4.22
2022-08-26T06:36:44.763Z,4.30
2022-08-26T06:39:17.774Z,5.10
2022-08-26T06:41:46.931Z,4.00
2022-08-26T06:44:16.950Z,5.30
2022-08-26T06:46:45.703Z,4.28
2022-08-26T06:49:14.232Z,4.40
2022-08-26T06:51:47.006Z,4.30
2022-08-26T06:54:17.347Z,3.88
2022-08-26T06:56:45.724Z,4.25
2022-08-26T06:59:16.445Z,4.38
2022-08-26T07:01:46.420Z,3.53
2022-08-26T07:04:21.872Z,3.88
2022-08-26T07:06:53.975Z,3.92
2022-08-26T07:09:24.055Z,4.37
2022-08-26T07:11:55.423Z,5.03
2022-08-26T07:14:25.280Z,4.13
2022-08-26T07:16:55.567Z,4.53
2022-08-26T07:19:29.770Z,3.90
2022-08-26T07:22:03.237Z,4.15
2022-08-26T07:24:32.812Z,3.65
2022-08-26T07:27:02.948Z,4.15
2022-08-26T07:29:34.380Z,4.18
2022-08-26T07:32:02.998Z,4.78
2022-08-26T07:34:32.112Z,3.83
2022-08-26T07:37:02.820Z,5.65
2022-08-26T07:39:32.825Z,4.10
2022-08-26T07:42:03.825Z,3.50
2022-08-26T07:44:36.708Z,4.65
2022-08-26T07:47:19.345Z,4.22
2022-08-26T07:49:54.866Z,4.10
2022-08-26T07:52:26.918Z,4.10
2022-08-26T07:54:56.616Z,3.65
2022-08-26T07:57:25.119Z,4.20
2022-08-26T07:59:55.067Z,3.40
2022-08-26T08:02:25.310Z,3.75
2022-08-26T08:04:54.510Z,4.30
2022-08-26T08:07:38.594Z,4.18
2022-08-26T08:10:16.211Z,4.47
2022-08-26T08:12:44.953Z,3.85
2022-08-26T08:15:14.535Z,3.50
2022-08-26T08:17:43.932Z,4.45
2022-08-26T08:20:15.049Z,4.32
2022-08-26T08:22:45.083Z,4.22
2022-08-26T08:25:14.756Z,4.13
2022-08-26T08:27:45.689Z,4.25
2022-08-26T08:30:15.729Z,3.80
2022-08-26T08:32:51.202Z,4.13
2022-08-26T08:35:22.491Z,4.32
2022-08-26T08:37:54.784Z,4.30
2022-08-26T08:40:26.297Z,4.15
2022-08-26T08:43:03.783Z,3.17
2022-08-26T08:45:39.442Z,3.65
2022-08-26T08:48:15.236Z,3.95
2022-08-26T08:50:48.378Z,3.40
2022-08-26T08:53:26.453Z,4.43
2022-08-26T08:56:11.392Z,3.65
2022-08-26T08:58:56.927Z,3.50
2022-08-26T09:01:42.643Z,3.55
2022-08-26T09:04:30.863Z,3.00
2022-08-26T09:07:03.937Z,3.30
2022-08-26T09:09:42.076Z,3.13
2022-08-26T09:12:20.414Z,3.28
2022-08-26T09:15:03.936Z,3.17
2022-08-26T09:17:49.065Z,3.08
2022-08-26T09:20:31.010Z,3.50
2022-08-26T09:22:59.385Z,2.88
2022-08-26T09:25:29.368Z,3.20
2022-08-26T09:27:59.874Z,3.33
2022-08-26T09:30:33.023Z,2.78
2022-08-26T09:33:10.326Z,2.83
2022-08-26T09:35:43.468Z,3.30
2022-08-26T09:38:26.794Z,3.63
2022-08-26T09:41:01.196Z,3.58
2022-08-26T09:43:30.674Z,3.70
2022-08-26T09:46:16.725Z,3.92
2022-08-26T09:48:45.373Z,4.05
2022-08-26T09:51:32.598Z,3.75
2022-08-26T09:54:03.182Z,3.75
2022-08-26T09:56:37.826Z,3.30
2022-08-26T09:59:12.031Z,3.38
2022-08-26T10:01:44.782Z,4.00
2022-08-26T10:04:21.580Z,3.38
2022-08-26T10:06:59.738Z,2.85
2022-08-26T10:09:30.024Z,3.42
2022-08-26T10:12:05.357Z,3.60
2022-08-26T10:14:39.846Z,3.55
2022-08-26T10:17:17.417Z,3.25
2022-08-26T10:19:56.689Z,3.38
2022-08-26T10:22:35.578Z,3.72
2022-08-26T10:25:11.009Z,2.90
2022-08-26T10:27:53.464Z,3.33
2022-08-26T10:30:25.285Z,3.33
2022-08-26T10:33:01.704Z,4.53
2022-08-26T10:35:31.911Z,2.60
2022-08-26T10:38:09.095Z,3.92
2022-08-26T10:40:52.902Z,2.95
2022-08-26T10:43:27.185Z,3.10
2022-08-26T10:46:01.840Z,3.20
2022-08-26T10:48:42.706Z,2.97
2022-08-26T10:51:14.018Z,2.97
2022-08-26T10:56:41.254Z,3.45
2022-08-26T10:59:21.997Z,2.42
2022-08-26T11:02:00.584Z,2.50
2022-08-26T11:04:52.212Z,3.35
2022-08-26T11:07:42.553Z,2.83
2022-08-26T11:11:04.173Z,2.72
2022-08-26T11:14:01.246Z,3.08
2022-08-26T11:16:42.878Z,3.20
2022-08-26T11:20:00.266Z,3.20
2022-08-26T11:22:32.881Z,3.40
2022-08-26T11:25:09.453Z,3.05
2022-08-26T11:28:05.252Z,2.60
2022-08-26T11:30:56.922Z,2.65
2022-08-26T11:33:59.530Z,2.72
2022-08-26T11:36:59.959Z,3.00
2022-08-26T11:39:38.647Z,3.20
2022-08-26T11:42:24.832Z,3.05
2022-08-26T11:44:58.099Z,2.50
2022-08-26T11:47:32.822Z,3.35
2022-08-26T11:50:16.422Z,3.10
2022-08-26T11:52:53.905Z,2.80
2022-08-26T11:55:23.454Z,2.65
2022-08-26T11:57:56.691Z,3.08
2022-08-26T12:00:33.313Z,3.03
2022-08-26T12:03:09.606Z,2.20
2022-08-26T12:05:46.003Z,2.67
2022-08-26T12:08:19.152Z,2.75
2022-08-26T12:10:48.289Z,2.90
2022-08-26T12:13:26.514Z,2.22
2022-08-26T12:15:57.936Z,2.72
2022-08-26T12:18:31.202Z,2.95
2022-08-26T12:21:16.005Z,2.55
2022-08-26T12:23:47.692Z,2.47
2022-08-26T12:26:26.478Z,3.13
2022-08-26T12:29:00.259Z,2.60
2022-08-26T12:31:34.253Z,3.03
2022-08-26T12:34:07.112Z,2.67
2022-08-26T12:36:50.795Z,2.75
2022-08-26T12:39:29.385Z,2.47
2022-08-26T12:41:59.864Z,2.65
2022-08-26T12:44:53.785Z,3.42
2022-08-26T12:47:43.015Z,3.00
2022-08-26T12:50:19.221Z,3.03
2022-08-26T12:53:01.268Z,2.90
2022-08-26T12:55:43.750Z,3.30
2022-08-26T12:58:22.656Z,2.70
2022-08-26T13:00:52.319Z,2.65
2022-08-26T13:03:43.889Z,3.38
2022-08-26T13:06:17.268Z,3.20
2022-08-26T13:08:48.360Z,3.00
2022-08-26T13:11:20.791Z,3.00
2022-08-26T13:13:51.756Z,2.90
2022-08-26T13:16:20.826Z,3.28
2022-08-26T13:18:50.166Z,3.03
2022-08-26T13:21:21.549Z,3.47
2022-08-26T13:23:53.521Z,3.13
2022-08-26T13:29:01.882Z,3.30
2022-08-26T13:31:34.572Z,4.00
2022-08-26T13:34:03.781Z,3.00
2022-08-26T13:36:32.197Z,3.17
2022-08-26T13:39:02.005Z,3.55
2022-08-26T13:41:32.066Z,3.38
2022-08-26T13:44:00.973Z,3.92
2022-08-26T13:46:30.312Z,3.30
2022-08-26T13:48:59.619Z,3.10
2022-08-26T13:51:29.231Z,3.38
2022-08-26T13:53:58.514Z,3.50
2022-08-26T13:56:30.452Z,3.25
2022-08-26T13:59:00.122Z,3.72
2022-08-26T14:01:31.143Z,3.72
2022-08-26T14:03:59.712Z,3.83
2022-08-26T14:06:28.178Z,4.05
2022-08-26T14:08:56.681Z,4.00
2022-08-26T14:11:25.438Z,4.03
2022-08-26T14:13:55.108Z,3.72
2022-08-26T14:16:28.221Z,3.88
2022-08-26T14:18:56.652Z,3.97
2022-08-26T14:21:33.692Z,3.80
2022-08-26T14:24:01.999Z,4.10
2022-08-26T14:26:30.697Z,3.88
2022-08-26T14:29:02.516Z,4.25
2022-08-26T14:31:33.478Z,3.97
2022-08-26T14:34:05.935Z,4.55
2022-08-26T14:36:35.588Z,3.85
2022-08-26T14:39:07.841Z,4.03
2022-08-26T14:41:40.089Z,4.30
2022-08-26T14:44:14.601Z,4.15
2022-08-26T14:46:49.601Z,3.78
2022-08-26T14:49:19.712Z,3.83
2022-08-26T14:51:48.242Z,3.72
2022-08-26T14:54:19.922Z,4.05
2022-08-26T14:56:52.284Z,3.97
2022-08-26T14:59:25.221Z,3.80
2022-08-26T15:01:54.353Z,3.65
2022-08-26T15:04:24.770Z,3.40
2022-08-26T15:06:54.304Z,3.35
2022-08-26T15:09:23.965Z,3.22
2022-08-26T15:11:53.117Z,3.13
2022-08-26T15:14:24.175Z,3.22
2022-08-26T15:16:55.849Z,3.33
2022-08-26T15:19:27.191Z,2.95
2022-08-26T15:21:55.597Z,3.03
2022-08-26T15:24:28.783Z,2.90
2022-08-26T15:26:57.239Z,3.83
2022-08-26T15:29:26.996Z,2.72
2022-08-26T15:31:57.643Z,3.00
2022-08-26T15:34:26.415Z,3.30
2022-08-26T15:36:55.193Z,3.35
2022-08-26T15:39:23.580Z,3.17
2022-08-26T15:41:52.103Z,3.15
2022-08-26T15:44:20.706Z,3.22
2022-08-26T15:46:55.351Z,3.17
2022-08-26T15:49:26.186Z,3.13
2022-08-26T15:51:55.096Z,3.08
2022-08-26T15:54:25.141Z,2.92
2022-08-26T15:56:53.873Z,3.33
2022-08-26T15:59:23.267Z,3.17
2022-08-26T16:01:53.436Z,3.03
2022-08-26T16:04:22.254Z,2.88
2022-08-26T16:06:52.187Z,3.65
2022-08-26T16:09:24.335Z,3.08
2022-08-26T16:11:53.025Z,3.88
2022-08-26T16:14:21.670Z,3.13
2022-08-26T16:16:50.555Z,3.90
2022-08-26T16:19:21.097Z,3.05
2022-08-26T16:21:50.800Z,4.25
2022-08-26T16:24:24.806Z,3.35
2022-08-26T16:26:55.876Z,3.55
2022-08-26T16:29:24.630Z,3.45
2022-08-26T16:31:53.842Z,3.42
2022-08-26T16:34:23.719Z,3.25
2022-08-26T16:36:52.780Z,3.47
2022-08-26T16:39:21.194Z,3.45
2022-08-26T16:41:49.601Z,3.58
2022-08-26T16:44:17.941Z,3.50
2022-08-26T16:46:46.627Z,3.45
2022-08-26T16:49:15.272Z,2.90
2022-08-26T16:51:45.144Z,3.58
2022-08-26T16:54:13.520Z,3.63
2022-08-26T16:56:41.838Z,3.28
2022-08-26T16:59:11.748Z,3.63
2022-08-26T17:01:40.301Z,3.90
2022-08-26T17:04:08.695Z,3.22
2022-08-26T17:06:37.233Z,3.10
2022-08-26T17:09:07.546Z,3.17
2022-08-26T17:11:36.200Z,3.55
2022-08-26T17:14:05.300Z,3.80
2022-08-26T17:16:33.827Z,3.65
2022-08-26T17:19:04.462Z,3.47
2022-08-26T17:21:35.141Z,3.22
2022-08-26T17:24:04.881Z,2.78
2022-08-26T17:26:34.859Z,3.65
2022-08-26T17:29:03.141Z,3.72
2022-08-26T17:31:32.536Z,3.67
2022-08-26T17:34:00.885Z,3.28
2022-08-26T17:36:29.424Z,3.97
2022-08-26T17:38:59.057Z,3.60
2022-08-26T17:41:28.574Z,3.72
2022-08-26T17:43:58.231Z,3.85
2022-08-26T17:46:26.995Z,3.63
2022-08-26T17:48:55.423Z,3.03
2022-08-26T17:51:24.364Z,4.22
2022-08-26T17:53:53.255Z,3.05
2022-08-26T17:56:28.659Z,3.65
2022-08-26T17:59:02.519Z,3.65
2022-08-26T18:01:32.989Z,3.10
2022-08-26T18:04:01.595Z,4.30
2022-08-26T18:06:31.317Z,3.40
2022-08-26T18:09:00.812Z,4.43
2022-08-26T18:11:29.668Z,3.70
2022-08-26T18:13:59.900Z,3.42
2022-08-26T18:16:31.885Z,3.83
2022-08-26T18:19:00.885Z,3.72
2022-08-26T18:21:29.489Z,2.70
2022-08-26T18:23:58.146Z,2.28
2022-08-26T18:26:29.469Z,2.58
2022-08-26T18:28:59.763Z,2.40
2022-08-26T18:31:28.679Z,1.95
2022-08-26T18:33:57.049Z,2.30
2022-08-26T18:36:28.961Z,2.05
2022-08-26T18:38:58.251Z,2.13
2022-08-26T18:41:29.561Z,2.13
2022-08-26T18:43:59.822Z,2.10
2022-08-26T18:46:29.286Z,2.35
2022-08-26T18:48:58.693Z,2.67
2022-08-26T18:51:30.223Z,2.60
2022-08-26T18:53:59.692Z,2.58
2022-08-26T18:56:28.721Z,2.80
2022-08-26T18:58:58.958Z,2.42
2022-08-26T19:01:28.531Z,2.15
2022-08-26T19:03:57.834Z,2.58
2022-08-26T19:06:28.233Z,2.60
2022-08-26T19:08:58.178Z,2.25
2022-08-26T19:11:31.308Z,2.10
2022-08-26T19:14:03.438Z,2.58
2022-08-26T19:16:32.152Z,2.45
2022-08-26T19:19:01.378Z,2.55
2022-08-26T19:21:30.552Z,3.33
2022-08-26T19:24:00.977Z,3.10
2022-08-26T19:26:30.553Z,3.03
2022-08-26T19:28:59.920Z,3.15
2022-08-26T19:31:29.776Z,3.67
2022-08-26T19:33:59.517Z,3.63
2022-08-26T19:36:29.261Z,3.83
2022-08-26T19:38:58.397Z,3.60
2022-08-26T19:41:37.193Z,4.18
2022-08-26T19:44:10.155Z,4.95
2022-08-26T19:49:08.596Z,3.53
2022-08-26T19:51:37.473Z,4.32
2022-08-26T19:54:06.458Z,3.30
2022-08-26T19:56:34.938Z,4.53
2022-08-26T19:59:03.924Z,4.22
2022-08-26T20:01:32.315Z,4.20
2022-08-26T20:04:02.018Z,4.50
2022-08-26T20:06:30.314Z,3.67
2022-08-26T20:08:59.100Z,4.18
2022-08-26T20:11:28.017Z,3.95
2022-08-26T20:13:57.132Z,4.60
2022-08-26T20:16:25.485Z,3.95
2022-08-26T20:19:11.323Z,4.68
2022-08-26T20:21:43.050Z,4.18
2022-08-26T20:24:14.930Z,4.32
2022-08-26T20:26:45.441Z,5.57
2022-08-26T20:29:16.916Z,5.60
2022-08-26T20:31:45.690Z,4.07
2022-08-26T20:34:16.528Z,4.28
2022-08-26T20:36:48.318Z,4.57
2022-08-26T20:39:18.667Z,3.90
2022-08-26T20:41:47.000Z,4.63
2022-08-26T20:44:16.727Z,4.43
2022-08-26T20:46:45.572Z,4.40
2022-08-26T20:49:14.864Z,4.70
2022-08-26T20:51:48.980Z,5.00
2022-08-26T20:54:19.477Z,5.15
2022-08-26T20:56:47.945Z,5.57
2022-08-26T20:59:17.063Z,4.43
2022-08-26T21:01:45.629Z,5.00
2022-08-26T21:04:18.719Z,5.72
2022-08-26T21:06:52.832Z,5.20
2022-08-26T21:09:22.968Z,5.22
2022-08-26T21:11:52.465Z,5.05
2022-08-26T21:14:23.237Z,5.82
2022-08-26T21:16:54.644Z,5.38
2022-08-26T21:19:23.394Z,5.32
2022-08-26T21:21:53.152Z,6.20
2022-08-26T21:24:21.562Z,6.07
2022-08-26T21:26:49.933Z,6.45
2022-08-26T21:29:18.302Z,6.32
2022-08-26T21:31:47.066Z,5.90
2022-08-26T21:34:17.085Z,6.07
2022-08-26T21:36:45.723Z,5.85
2022-08-26T21:39:16.419Z,6.07
2022-08-26T21:41:45.756Z,6.25
2022-08-26T21:44:16.203Z,6.43
2022-08-26T21:46:46.230Z,7.03
2022-08-26T21:49:16.803Z,6.43
2022-08-26T21:51:48.337Z,6.90
2022-08-26T21:54:19.467Z,6.73
2022-08-26T21:56:49.228Z,7.10
2022-08-26T21:59:20.010Z,6.85
2022-08-26T22:01:48.851Z,6.72
2022-08-26T22:04:18.631Z,7.35
2022-08-26T22:06:52.002Z,7.68
2022-08-26T22:09:25.898Z,6.13
2022-08-26T22:11:56.899Z,7.30
2022-08-26T22:14:30.629Z,8.25
2022-08-26T22:17:00.321Z,6.40
2022-08-26T22:19:29.875Z,6.15
2022-08-26T22:21:59.476Z,7.57
2022-08-26T22:24:29.442Z,6.68
2022-08-26T22:26:58.058Z,6.47
2022-08-26T22:29:27.188Z,5.90
2022-08-26T22:31:55.648Z,6.35
2022-08-26T22:34:24.042Z,6.53
2022-08-26T22:36:52.802Z,5.95
2022-08-26T22:39:25.327Z,6.05
2022-08-26T22:41:56.858Z,5.50
2022-08-26T22:44:25.636Z,5.93
2022-08-26T22:46:55.530Z,5.82
2022-08-26T22:49:24.975Z,5.40
2022-08-26T22:51:53.269Z,6.32
2022-08-26T22:54:21.835Z,5.32
2022-08-26T22:56:50.188Z,5.85
2022-08-26T22:59:19.940Z,5.50
2022-08-26T23:01:48.338Z,5.78
2022-08-26T23:04:16.846Z,5.63
2022-08-26T23:06:47.841Z,5.78
2022-08-26T23:09:18.408Z,5.78
2022-08-26T23:11:48.434Z,4.95
2022-08-26T23:14:18.068Z,5.55
2022-08-26T23:16:48.428Z,5.53
2022-08-26T23:19:22.778Z,5.43
2022-08-26T23:21:51.859Z,5.32
2022-08-26T23:24:20.563Z,5.07
2022-08-26T23:26:49.867Z,5.10
2022-08-26T23:29:18.478Z,4.65
2022-08-26T23:31:48.369Z,4.78
2022-08-26T23:34:34.139Z,4.63
2022-08-26T23:37:06.255Z,4.88
2022-08-26T23:39:37.228Z,4.88
2022-08-26T23:42:06.608Z,5.25
2022-08-26T23:44:35.433Z,4.80
2022-08-26T23:47:06.207Z,5.30
2022-08-26T23:49:35.064Z,5.55
2022-08-26T23:52:21.075Z,4.88
2022-08-26T23:54:49.419Z,4.82
2022-08-26T23:57:19.521Z,4.75
2022-08-26T23:59:49.046Z,5.25
